Time;durP1;ratioP1;P1;durP2;ratioP2;P2;SDS_P1;SDS_P2;PMS_P1;PMS_P2;Temp;Humidity;BMP_temperature;BMP_pressure;BME280_temperature;BME280_humidity;BME280_pressure;Samples;Min_cycle;Max_cycle;Signal;HPM_P1;HPM_P2
2022/04/11 00:01:09;;;;;;;4.50;3.10;;;;;;;2.89;71.40;100523.34;5017686;28;20113;-59
2022/04/11 00:03:40;;;;;;;5.03;3.00;;;;;;;2.97;70.51;100511.44;5015830;28;20057;-58
2022/04/11 00:06:10;;;;;;;3.92;2.70;;;;;;;3.16;70.56;100512.66;5016552;28;20054;-58
2022/04/11 00:08:44;;;;;;;7.78;2.90;;;;;;;3.21;69.99;100521.38;5017307;28;20108;-59
2022/04/11 00:11:16;;;;;;;4.18;2.63;;;;;;;3.34;69.66;100533.63;5015071;28;20046;-59
2022/04/11 00:13:47;;;;;;;3.85;2.65;;;;;;;3.05;69.23;100545.19;5016586;28;20037;-58
2022/04/11 00:16:18;;;;;;;5.47;2.80;;;;;;;3.06;69.58;100552.06;5016757;28;20075;-59
2022/04/11 00:18:48;;;;;;;4.55;2.72;;;;;;;3.13;69.22;100559.09;5014429;28;20113;-59
2022/04/11 00:21:19;;;;;;;6.60;3.03;;;;;;;2.78;69.40;100573.06;5016796;28;20069;-59
2022/04/11 00:23:50;;;;;;;5.10;2.50;;;;;;;2.28;69.98;100543.63;5014954;28;20088;-59
2022/04/11 00:26:23;;;;;;;5.55;2.92;;;;;;;2.36;70.59;100567.88;5017568;28;20046;-59
2022/04/11 00:28:53;;;;;;;10.32;2.80;;;;;;;2.28;71.28;100559.97;5015652;28;20077;-59
2022/04/11 00:31:24;;;;;;;4.22;2.85;;;;;;;2.24;71.49;100567.59;5016339;28;20052;-59
2022/04/11 00:33:55;;;;;;;4.70;2.42;;;;;;;2.31;71.56;100574.63;5011887;28;20046;-59
2022/04/11 00:36:25;;;;;;;8.45;2.40;;;;;;;2.44;71.46;100561.16;5007214;28;20058;-60
2022/04/11 00:38:56;;;;;;;5.32;2.50;;;;;;;2.52;70.79;100563.91;5016412;28;20054;-60
2022/04/11 00:41:29;;;;;;;6.00;2.40;;;;;;;2.50;70.72;100566.47;5013712;28;20085;-60
2022/04/11 00:43:59;;;;;;;3.63;2.35;;;;;;;2.54;70.11;100557.94;5015590;28;20113;-59
2022/04/11 00:46:30;;;;;;;7.40;2.55;;;;;;;2.49;70.23;100567.28;5020420;28;20060;-59
2022/04/11 00:49:01;;;;;;;4.40;2.50;;;;;;;2.54;70.08;100567.38;5020410;28;20050;-59
2022/04/11 00:51:32;;;;;;;4.97;3.88;;;;;;;2.58;70.47;100575.22;5020920;28;20126;-59
2022/04/11 00:54:03;;;;;;;4.75;3.33;;;;;;;2.67;70.34;100571.97;5020047;28;20449;-59
2022/04/11 00:56:37;;;;;;;7.57;2.45;;;;;;;2.86;69.86;100575.78;5018457;28;20046;-59
2022/04/11 00:59:07;;;;;;;4.85;1.85;;;;;;;2.97;69.36;100574.31;5020386;28;20169;-59
2022/04/11 01:01:38;;;;;;;4.75;2.25;;;;;;;2.94;69.18;100553.56;5020414;28;20061;-59
2022/04/11 01:04:23;;;;;;;7.07;2.63;;;;;;;2.89;69.59;100560.34;5017680;28;20046;-59
2022/04/11 01:06:53;;;;;;;8.02;2.95;;;;;;;2.98;69.27;100564.84;5018070;28;20142;-59
2022/04/11 01:09:25;;;;;;;4.78;2.35;;;;;;;2.96;69.29;100551.88;5019835;28;20379;-59
2022/04/11 01:11:58;;;;;;;5.25;2.10;;;;;;;3.05;68.69;100558.09;5019828;28;20081;-59
2022/04/11 01:14:28;;;;;;;4.85;2.20;;;;;;;3.20;68.56;100555.78;5017221;28;20100;-59
2022/04/11 01:16:59;;;;;;;5.13;2.28;;;;;;;3.39;67.93;100538.88;5019740;28;20104;-59
2022/04/11 01:19:30;;;;;;;5.32;2.40;;;;;;;3.58;67.36;100522.00;5017822;28;20061;-57
2022/04/11 01:22:02;;;;;;;8.68;2.60;;;;;;;3.60;66.45;100509.97;5019912;28;20117;-58
2022/04/11 01:24:34;;;;;;;4.25;2.42;;;;;;;3.67;66.78;100496.31;5017657;28;20081;-58
2022/04/11 01:27:05;;;;;;;4.43;1.98;;;;;;;3.78;66.51;100494.72;5019941;28;20109;-59
2022/04/11 01:29:36;;;;;;;3.58;2.20;;;;;;;3.94;66.38;100489.78;5017690;28;20050;-59
2022/04/11 01:32:08;;;;;;;3.25;2.00;;;;;;;4.00;65.65;100484.72;5023712;28;20105;-58
2022/04/11 01:34:38;;;;;;;2.60;2.20;;;;;;;3.92;65.16;100491.47;5026323;28;20279;-58
2022/04/11 01:37:11;;;;;;;2.85;2.13;;;;;;;3.76;65.70;100491.25;5026118;28;20084;-58
2022/04/11 01:39:42;;;;;;;5.47;2.40;;;;;;;3.97;66.38;100484.66;5026944;28;20057;-58
2022/04/11 01:42:12;;;;;;;5.72;2.42;;;;;;;4.08;65.71;100483.94;5025963;28;20337;-59
2022/04/11 01:44:43;;;;;;;6.05;2.70;;;;;;;4.09;65.45;100487.41;5027224;28;20084;-58
2022/04/11 01:47:14;;;;;;;7.45;3.00;;;;;;;4.04;65.81;100486.47;5026948;28;20056;-59
2022/04/11 01:49:45;;;;;;;4.72;2.75;;;;;;;4.23;65.57;100478.13;5026688;28;20077;-58
2022/04/11 01:52:18;;;;;;;4.65;2.85;;;;;;;4.36;65.16;100473.97;5026333;28;20121;-59
2022/04/11 01:54:48;;;;;;;6.72;3.13;;;;;;;4.38;64.38;100480.03;5026576;28;20117;-59
2022/04/11 01:57:39;;;;;;;8.77;3.42;;;;;;;4.23;64.82;100472.94;5026299;28;20046;-59
2022/04/11 02:00:11;;;;;;;9.55;3.17;;;;;;;4.28;65.06;100466.09;5026541;28;20053;-59
2022/04/11 02:02:41;;;;;;;5.00;3.15;;;;;;;4.32;64.34;100473.06;5026626;28;20061;-59
2022/04/11 02:05:12;;;;;;;6.05;3.20;;;;;;;4.38;64.08;100479.16;5026871;28;20360;-58
2022/04/11 02:07:45;;;;;;;5.40;2.30;;;;;;;4.49;64.04;100467.22;5026291;28;20060;-59
2022/04/11 02:10:16;;;;;;;6.63;2.53;;;;;;;4.50;63.64;100471.56;5026092;28;20057;-58
2022/04/11 02:12:47;;;;;;;4.32;2.50;;;;;;;4.44;63.88;100472.34;5026501;28;20042;-58
2022/04/11 02:15:18;;;;;;;7.47;3.00;;;;;;;4.54;63.98;100473.31;5026114;28;20220;-58
2022/04/11 02:17:50;;;;;;;4.07;2.50;;;;;;;4.56;63.59;100471.59;5025969;28;20046;-58
2022/04/11 02:20:20;;;;;;;4.47;2.80;;;;;;;4.58;62.77;100459.56;5026161;28;20053;-59
2022/04/11 02:22:54;;;;;;;4.30;1.98;;;;;;;4.27;63.01;100464.38;5026072;28;20084;-59
2022/04/11 02:25:26;;;;;;;4.38;2.72;;;;;;;3.74;64.18;100394.72;5026035;28;20281;-59
2022/04/11 02:27:58;;;;;;;9.82;2.90;;;;;;;4.10;64.59;100476.22;5026067;28;20050;-58
2022/04/11 02:30:29;;;;;;;3.72;2.35;;;;;;;4.12;64.34;100484.88;5025640;28;20064;-59
2022/04/11 02:33:00;;;;;;;3.60;2.45;;;;;;;4.13;64.85;100496.94;5026067;28;20084;-59
2022/04/11 02:35:31;;;;;;;3.28;2.38;;;;;;;4.20;64.97;100493.59;5026110;28;20113;-59
2022/04/11 02:38:03;;;;;;;4.65;2.67;;;;;;;4.16;64.39;100491.81;5025719;28;20371;-59
2022/04/11 02:40:34;;;;;;;3.55;2.47;;;;;;;3.85;64.70;100501.75;5025825;28;20077;-59
2022/04/11 02:43:05;;;;;;;5.68;2.45;;;;;;;3.70;65.49;100501.50;5025683;28;20318;-59
2022/04/11 02:45:35;;;;;;;8.85;2.67;;;;;;;3.70;65.92;100493.75;5025426;28;20283;-59
2022/04/11 02:48:07;;;;;;;7.25;2.65;;;;;;;3.78;65.67;100499.03;5025995;28;20053;-59
2022/04/11 02:50:37;;;;;;;5.88;3.15;;;;;;;3.83;65.49;100485.31;5025243;28;20156;-62
2022/04/11 02:53:10;;;;;;;5.28;3.00;;;;;;;3.96;65.46;100480.34;5025195;28;20114;-59
2022/04/11 02:55:40;;;;;;;3.05;2.38;;;;;;;4.16;65.03;100465.94;5025385;28;20113;-58
2022/04/11 02:58:11;;;;;;;6.38;3.00;;;;;;;4.35;64.91;100461.88;5025465;28;20283;-59
2022/04/11 03:00:42;;;;;;;4.43;2.50;;;;;;;4.31;64.27;100458.38;5025091;28;20060;-59
2022/04/11 03:03:12;;;;;;;4.72;2.90;;;;;;;4.44;64.29;100461.13;5025244;28;20053;-59
2022/04/11 03:05:43;;;;;;;3.83;2.80;;;;;;;4.59;63.72;100453.53;5025270;28;20045;-59
2022/04/11 03:08:15;;;;;;;5.13;2.67;;;;;;;4.62;63.60;100444.91;5024666;28;20391;-59
2022/04/11 03:10:46;;;;;;;7.80;2.88;;;;;;;4.63;63.21;100429.41;5025205;28;20073;-59
2022/04/11 03:13:16;;;;;;;6.10;2.55;;;;;;;4.76;63.36;100426.09;5025465;28;20049;-59
2022/04/11 03:15:47;;;;;;;4.18;2.78;;;;;;;4.80;62.67;100413.19;5023574;28;20053;-59
2022/04/11 03:18:18;;;;;;;6.15;3.40;;;;;;;4.62;63.06;100409.59;5024756;28;20064;-59
2022/04/11 03:20:49;;;;;;;4.95;2.42;;;;;;;4.58;63.35;100404.34;5025155;28;20065;-59
2022/04/11 03:23:21;;;;;;;5.15;3.00;;;;;;;4.62;63.45;100401.81;5024629;28;20053;-58
2022/04/11 03:25:52;;;;;;;5.75;2.72;;;;;;;4.65;63.01;100409.59;5025070;28;20065;-58
2022/04/11 03:28:22;;;;;;;4.43;2.45;;;;;;;4.62;63.81;100394.06;5024575;28;20050;-58
2022/04/11 03:30:53;;;;;;;4.53;2.40;;;;;;;4.64;63.48;100387.19;5024648;28;20308;-59
2022/04/11 03:33:24;;;;;;;6.80;2.40;;;;;;;4.59;63.31;100394.00;5024797;28;20303;-59
2022/04/11 03:35:55;;;;;;;6.55;2.50;;;;;;;4.59;63.51;100373.28;5023372;28;20402;-58
2022/04/11 03:38:27;;;;;;;3.80;2.30;;;;;;;4.70;63.61;100371.69;5023455;28;20085;-60
2022/04/11 03:40:58;;;;;;;4.88;2.80;;;;;;;4.51;64.18;100385.28;5023713;28;20417;-58
2022/04/11 03:43:30;;;;;;;4.75;2.72;;;;;;;4.56;64.29;100388.78;5023453;28;20069;-59
2022/04/11 03:46:00;;;;;;;4.20;2.33;;;;;;;4.58;63.48;100379.34;5023850;28;20056;-59
2022/04/11 03:48:31;;;;;;;3.45;2.40;;;;;;;4.58;63.66;100381.91;5023648;28;20065;-60
2022/04/11 03:51:02;;;;;;;5.13;2.28;;;;;;;4.54;63.58;100385.31;5023601;28;20336;-59
2022/04/11 03:53:38;;;;;;;3.25;2.20;;;;;;;4.41;64.24;100404.16;5023511;28;20065;-59
2022/04/11 03:56:09;;;;;;;3.90;2.60;;;;;;;4.16;64.57;100413.38;5023560;28;20117;-59
2022/04/11 03:58:40;;;;;;;3.75;2.50;;;;;;;4.11;65.35;100400.38;5023339;28;20105;-59
2022/04/11 04:01:11;;;;;;;3.65;2.40;;;;;;;4.12;65.44;100428.00;5023506;28;20112;-59
2022/04/11 04:03:42;;;;;;;6.55;2.60;;;;;;;3.95;65.28;100403.63;5023344;28;20046;-58
2022/04/11 04:06:13;;;;;;;15.80;8.48;;;;;;;4.18;65.66;100417.69;5023655;28;20077;-60
2022/04/11 04:08:45;;;;;;;10.93;4.30;;;;;;;4.12;65.16;100407.31;5023036;28;20076;-60
2022/04/11 04:11:16;;;;;;;22.73;7.95;;;;;;;3.72;65.81;100323.19;5022917;28;20037;-59
2022/04/11 04:13:47;;;;;;;4.75;2.70;;;;;;;4.16;65.29;100403.88;5023138;28;20327;-59
2022/04/11 04:16:18;;;;;;;4.45;2.42;;;;;;;4.12;65.46;100417.66;5023209;28;20344;-59
2022/04/11 04:18:49;;;;;;;45.03;16.30;;;;;;;4.08;65.92;100416.72;5023050;28;20320;-60
2022/04/11 04:21:20;;;;;;;32.50;13.10;;;;;;;4.07;65.96;100403.78;5022962;28;20360;-60
2022/04/11 04:23:52;;;;;;;32.15;13.30;;;;;;;3.99;65.79;100400.22;5022959;28;20359;-60
2022/04/11 04:26:23;;;;;;;24.40;10.23;;;;;;;3.92;65.85;100388.97;5024183;28;20125;-59
2022/04/11 04:28:54;;;;;;;8.68;4.07;;;;;;;3.72;66.49;100411.94;5022831;28;20057;-59
2022/04/11 04:31:25;;;;;;;5.80;2.80;;;;;;;3.64;67.15;100405.78;5022611;28;20053;-59
2022/04/11 04:33:58;;;;;;;4.85;2.40;;;;;;;3.79;67.22;100387.91;5022664;28;20268;-59
2022/04/11 04:36:29;;;;;;;13.95;5.78;;;;;;;3.81;67.18;100390.53;5023004;28;20066;-59
2022/04/11 04:39:07;;;;;;;14.18;6.47;;;;;;;3.82;67.31;100385.38;5022609;28;20061;-59
2022/04/11 04:41:40;;;;;;;4.82;2.40;;;;;;;3.95;67.18;100398.47;5023008;28;20056;-59
2022/04/11 04:44:11;;;;;;;9.95;3.53;;;;;;;3.94;67.11;100386.38;5022584;28;20041;-59
2022/04/11 04:46:42;;;;;;;9.05;4.13;;;;;;;3.66;67.32;100391.19;5023702;28;20056;-59
2022/04/11 04:49:13;;;;;;;8.07;3.90;;;;;;;3.43;68.40;100404.63;5023184;28;20283;-60
2022/04/11 04:51:43;;;;;;;9.95;3.10;;;;;;;3.40;69.08;100394.28;5023132;28;20053;-59
2022/04/11 04:54:16;;;;;;;8.57;3.88;;;;;;;3.26;69.28;100413.84;5023699;28;20076;-59
2022/04/11 04:56:49;;;;;;;10.10;5.60;;;;;;;3.18;70.06;100413.72;5023885;28;20073;-59
2022/04/11 04:59:19;;;;;;;7.55;3.38;;;;;;;3.06;70.30;100433.31;5023641;28;20300;-59
2022/04/11 05:01:50;;;;;;;5.53;2.58;;;;;;;3.01;70.48;100423.78;5023279;28;20061;-59
2022/04/11 05:04:21;;;;;;;5.88;2.35;;;;;;;2.98;70.81;100426.31;5023215;28;20068;-59
2022/04/11 05:06:52;;;;;;;7.05;3.90;;;;;;;3.12;70.80;100407.59;5023348;28;20247;-59
2022/04/11 05:09:24;;;;;;;7.72;3.08;;;;;;;3.19;70.15;100419.75;5023674;28;20053;-59
2022/04/11 05:11:55;;;;;;;8.52;3.40;;;;;;;3.16;70.44;100419.72;5023427;28;20419;-59
2022/04/11 05:14:25;;;;;;;7.40;2.45;;;;;;;3.15;70.41;100428.31;5021601;28;20072;-58
2022/04/11 05:16:56;;;;;;;4.32;2.20;;;;;;;3.12;70.59;100447.22;5022353;28;20053;-59
2022/04/11 05:19:27;;;;;;;6.35;2.28;;;;;;;2.93;71.40;100453.75;5022340;28;20134;-59
2022/04/11 05:21:57;;;;;;;6.45;2.92;;;;;;;2.65;72.58;100443.78;5021813;28;20076;-59
2022/04/11 05:24:30;;;;;;;6.18;2.40;;;;;;;2.43;73.33;100456.25;5022194;28;20332;-59
2022/04/11 05:27:01;;;;;;;6.53;2.78;;;;;;;2.37;73.50;100446.69;5023328;28;20053;-59
2022/04/11 05:29:31;;;;;;;6.38;2.38;;;;;;;2.36;73.47;100432.06;5023557;28;20053;-59
2022/04/11 05:32:02;;;;;;;12.00;4.10;;;;;;;2.46;73.81;100439.97;5025814;28;20080;-59
2022/04/11 05:34:32;;;;;;;21.75;7.15;;;;;;;2.40;73.85;100448.47;5027088;28;20069;-59
2022/04/11 05:37:04;;;;;;;31.42;12.20;;;;;;;2.32;74.15;100444.84;5026705;28;20046;-59
2022/04/11 05:39:36;;;;;;;30.08;8.93;;;;;;;2.31;74.37;100450.84;5026814;28;20053;-59
2022/04/11 05:42:08;;;;;;;9.60;3.75;;;;;;;2.18;75.07;100433.41;5026820;28;20054;-59
2022/04/11 05:44:38;;;;;;;36.85;14.70;;;;;;;2.20;75.08;100442.03;5026668;28;20107;-59
2022/04/11 05:47:09;;;;;;;30.27;11.63;;;;;;;2.19;75.38;100453.19;5026907;28;20129;-59
2022/04/11 05:49:40;;;;;;;24.92;10.82;;;;;;;2.13;75.62;100444.50;5026934;28;20076;-58
2022/04/11 05:52:14;;;;;;;24.13;9.05;;;;;;;2.12;75.81;100458.22;5026675;28;20057;-59
2022/04/11 05:54:47;;;;;;;29.25;10.45;;;;;;;1.82;75.75;100377.69;5026517;28;20080;-58
2022/04/11 05:57:18;;;;;;;12.90;5.60;;;;;;;2.13;75.44;100441.03;5026625;28;20057;-58
2022/04/11 05:59:48;;;;;;;23.00;7.68;;;;;;;2.18;75.32;100438.56;5026734;28;20276;-59
2022/04/11 06:02:19;;;;;;;15.70;5.30;;;;;;;2.10;75.13;100421.22;5026629;28;20053;-58
2022/04/11 06:04:50;;;;;;;21.13;7.45;;;;;;;2.07;75.54;100408.28;5026532;28;20065;-58
2022/04/11 06:07:21;;;;;;;14.40;6.07;;;;;;;2.18;75.74;100430.84;5026859;28;20117;-59
2022/04/11 06:09:54;;;;;;;31.02;12.38;;;;;;;2.24;75.54;100425.78;5026274;28;20050;-58
2022/04/11 06:12:24;;;;;;;11.25;4.13;;;;;;;2.20;75.44;100401.66;5025988;28;20124;-58
2022/04/11 06:14:55;;;;;;;9.23;3.70;;;;;;;2.08;75.24;100391.13;5026106;28;20053;-59
2022/04/11 06:17:26;;;;;;;10.50;3.38;;;;;;;2.11;75.80;100381.72;5025969;28;20240;-58
2022/04/11 06:19:58;;;;;;;5.15;2.83;;;;;;;2.13;75.66;100389.50;5026072;28;20092;-58
2022/04/11 06:22:29;;;;;;;6.20;2.38;;;;;;;2.10;75.41;100380.00;5026043;28;20063;-58
2022/04/11 06:25:05;;;;;;;7.32;3.22;;;;;;;1.95;76.03;100390.00;5026008;28;20065;-58
2022/04/11 06:27:36;;;;;;;7.60;3.13;;;;;;;2.05;76.15;100373.88;5025866;28;20347;-58
2022/04/11 06:30:07;;;;;;;13.57;4.75;;;;;;;2.06;76.48;100367.88;5025835;28;20054;-58
2022/04/11 06:32:38;;;;;;;7.88;3.30;;;;;;;2.03;76.08;100367.81;5025634;28;20259;-60
2022/04/11 06:35:10;;;;;;;9.38;4.65;;;;;;;1.79;76.64;100331.25;5025841;28;20124;-59
2022/04/11 06:37:41;;;;;;;8.05;3.10;;;;;;;1.87;76.82;100370.91;5025796;28;20150;-59
2022/04/11 06:40:14;;;;;;;10.02;4.30;;;;;;;1.75;77.58;100380.97;5024229;28;20260;-59
2022/04/11 06:42:44;;;;;;;13.90;5.13;;;;;;;1.78;77.34;100370.75;5022969;28;20080;-59
2022/04/11 06:45:15;;;;;;;26.85;7.43;;;;;;;1.82;77.25;100369.94;5025449;28;20117;-59
2022/04/11 06:47:48;;;;;;;13.32;5.30;;;;;;;1.84;77.21;100365.69;5024802;28;20049;-59
2022/04/11 06:50:18;;;;;;;13.02;5.28;;;;;;;1.94;77.54;100362.47;5025486;28;20084;-59
2022/04/11 06:52:49;;;;;;;12.18;4.22;;;;;;;1.83;77.53;100369.13;5024979;28;20061;-57
2022/04/11 06:55:21;;;;;;;11.38;4.30;;;;;;;1.58;78.31;100373.75;5025373;28;20080;-57
2022/04/11 06:57:52;;;;;;;12.02;4.00;;;;;;;1.55;78.41;100362.50;5025212;28;20125;-59
2022/04/11 07:00:22;;;;;;;7.95;3.53;;;;;;;1.58;78.54;100363.44;5025291;28;20399;-58
2022/04/11 07:02:53;;;;;;;21.00;4.68;;;;;;;1.51;78.80;100367.59;5025499;28;20083;-58
2022/04/11 07:05:24;;;;;;;11.68;4.93;;;;;;;1.41;78.89;100391.41;5025209;28;20062;-57
2022/04/11 07:07:55;;;;;;;9.23;3.65;;;;;;;0.97;79.25;100320.88;5025266;28;20084;-58
2022/04/11 07:10:27;;;;;;;8.70;4.25;;;;;;;1.23;79.46;100411.56;5025134;28;20046;-57
2022/04/11 07:12:57;;;;;;;9.13;3.65;;;;;;;1.11;79.48;100412.16;5022928;28;20049;-58
2022/04/11 07:15:28;;;;;;;10.15;3.55;;;;;;;1.05;79.82;100412.00;5023768;28;20058;-58
2022/04/11 07:17:59;;;;;;;11.82;3.72;;;;;;;0.99;79.95;100417.00;5024989;28;20343;-58
2022/04/11 07:20:30;;;;;;;11.55;3.72;;;;;;;0.91;80.33;100403.06;5024664;28;20065;-57
2022/04/11 07:23:00;;;;;;;8.95;3.85;;;;;;;0.78;81.38;100410.47;5024865;28;20046;-57
2022/04/11 07:25:32;;;;;;;10.77;3.90;;;;;;;0.75;81.30;100402.69;5025003;28;20064;-57
2022/04/11 07:28:03;;;;;;;15.20;4.10;;;;;;;0.77;81.09;100416.44;5024652;28;20041;-57
2022/04/11 07:30:34;;;;;;;16.63;4.60;;;;;;;0.80;81.23;100421.69;5022535;28;20099;-57
2022/04/11 07:33:05;;;;;;;13.20;4.20;;;;;;;0.79;81.48;100412.22;5024495;28;20081;-57
2022/04/11 07:35:35;;;;;;;10.88;4.40;;;;;;;0.77;81.33;100420.72;5024125;28;20144;-58
2022/04/11 07:38:06;;;;;;;15.73;4.97;;;;;;;0.76;81.69;100425.00;5024553;28;20247;-58
2022/04/11 07:40:39;;;;;;;14.52;4.55;;;;;;;0.67;81.90;100419.59;5024482;28;20373;-58
2022/04/11 07:43:09;;;;;;;13.75;4.40;;;;;;;0.64;82.55;100424.69;5024380;28;20088;-58
2022/04/11 07:45:40;;;;;;;17.02;4.22;;;;;;;0.53;82.58;100431.25;5024718;28;20062;-58
2022/04/11 07:48:11;;;;;;;16.45;4.75;;;;;;;0.47;83.20;100446.50;5023852;28;20057;-58
2022/04/11 07:50:41;;;;;;;10.45;4.35;;;;;;;0.43;83.10;100451.56;5024408;28;20053;-57
2022/04/11 07:53:12;;;;;;;19.52;6.00;;;;;;;0.38;83.65;100463.41;5022342;28;20105;-58
2022/04/11 07:55:45;;;;;;;21.65;5.90;;;;;;;0.35;83.76;100467.59;5023668;28;20148;-58
2022/04/11 07:58:18;;;;;;;17.40;5.20;;;;;;;0.30;83.91;100470.06;5024319;28;20345;-58
2022/04/11 08:00:51;;;;;;;11.45;4.63;;;;;;;0.21;84.30;100490.34;5024443;28;20073;-57
2022/04/11 08:03:22;;;;;;;14.30;4.85;;;;;;;0.23;83.79;100482.69;5024359;28;20049;-58
2022/04/11 08:05:52;;;;;;;14.13;4.55;;;;;;;0.21;84.18;100490.34;5024296;28;20323;-57
2022/04/11 08:08:24;;;;;;;17.65;5.20;;;;;;;0.21;83.93;100490.34;5023891;28;20398;-57
2022/04/11 08:10:56;;;;;;;18.33;4.10;;;;;;;0.23;84.13;100504.09;5023730;28;20260;-58
2022/04/11 08:13:27;;;;;;;24.23;7.97;;;;;;;0.28;84.21;100511.97;5023740;28;20038;-58
2022/04/11 08:15:57;;;;;;;23.08;8.20;;;;;;;0.28;84.18;100505.13;5024052;28;20143;-58
2022/04/11 08:18:28;;;;;;;18.15;6.75;;;;;;;0.30;83.89;100502.56;5024089;28;20061;-58
2022/04/11 08:20:59;;;;;;;16.92;5.13;;;;;;;0.32;83.90;100503.50;5023874;28;20427;-58
2022/04/11 08:23:30;;;;;;;18.05;5.78;;;;;;;0.25;84.16;100502.47;5023301;28;20220;-58
2022/04/11 08:26:02;;;;;;;19.75;5.43;;;;;;;0.31;84.02;100502.63;5023817;28;20401;-58
2022/04/11 08:28:33;;;;;;;31.02;8.48;;;;;;;0.33;84.09;100511.25;5023828;28;20076;-58
2022/04/11 08:31:04;;;;;;;23.95;9.90;;;;;;;0.27;83.99;100487.94;5023218;28;20394;-58
2022/04/11 08:33:35;;;;;;;15.70;5.82;;;;;;;0.15;84.43;100495.28;5023116;28;20067;-58
2022/04/11 08:36:06;;;;;;;23.88;7.03;;;;;;;0.10;85.00;100491.69;5023582;28;20058;-58
2022/04/11 08:38:36;;;;;;;20.27;5.20;;;;;;;0.06;84.59;100484.75;5023810;28;20049;-58
2022/04/11 08:41:17;;;;;;;15.20;6.05;;;;;;;0.03;85.21;100484.66;5024014;28;20053;-58
2022/04/11 08:43:47;;;;;;;17.30;5.70;;;;;;;0.06;84.99;100469.34;5023761;28;20049;-58
2022/04/11 08:46:19;;;;;;;13.13;5.38;;;;;;;0.01;85.16;100460.63;5023788;28;20111;-58
2022/04/11 08:48:50;;;;;;;17.70;6.45;;;;;;;0.01;85.39;100470.91;5023781;28;20062;-58
2022/04/11 08:51:21;;;;;;;14.80;5.80;;;;;;;0.03;85.72;100482.97;5024274;28;20433;-58
2022/04/11 08:53:53;;;;;;;16.17;5.57;;;;;;;0.07;85.41;100486.47;5023920;28;20053;-58
2022/04/11 08:56:26;;;;;;;27.63;8.63;;;;;;;0.08;85.41;100472.81;5023247;28;20061;-58
2022/04/11 08:58:57;;;;;;;20.27;7.07;;;;;;;0.02;85.50;100470.94;5021743;28;20100;-58
2022/04/11 09:01:28;;;;;;;30.23;9.65;;;;;;;-0.04;85.99;100461.34;5023764;28;20092;-58
2022/04/11 09:03:58;;;;;;;18.58;6.25;;;;;;;-0.12;86.23;100470.53;5023798;28;20065;-58
2022/04/11 09:06:34;;;;;;;18.73;5.60;;;;;;;-0.20;86.13;100456.59;5025068;28;20283;-58
2022/04/11 09:09:06;;;;;;;23.13;6.00;;;;;;;-0.27;86.54;100439.25;5027554;28;20057;-58
2022/04/11 09:11:40;;;;;;;27.52;7.78;;;;;;;-0.17;86.65;100450.69;5026014;28;20045;-58
2022/04/11 09:14:11;;;;;;;23.77;6.68;;;;;;;-0.24;86.47;100454.75;5027385;28;20057;-58
2022/04/11 09:16:53;;;;;;;16.70;5.75;;;;;;;-0.35;87.19;100471.50;5027364;28;20042;-58
2022/04/11 09:19:25;;;;;;;23.55;7.25;;;;;;;-0.93;87.16;100391.88;5027561;28;20494;-58
2022/04/11 09:22:31;;;;;;;37.78;11.00;;;;;;;-0.40;87.05;100470.50;5027007;28;20060;-58
2022/04/11 09:25:12;;;;;;;16.95;6.78;;;;;;;-0.43;87.44;100474.72;5026818;28;20057;-58
2022/04/11 09:27:45;;;;;;;28.42;8.10;;;;;;;-0.73;87.79;100427.56;5026951;28;20057;-58
2022/04/11 09:30:24;;;;;;;32.53;8.60;;;;;;;-0.68;87.51;100436.25;5026406;28;20061;-58
2022/04/11 09:33:02;;;;;;;24.73;8.73;;;;;;;-0.42;88.01;100491.00;5026353;28;20045;-58
2022/04/11 09:35:33;;;;;;;28.55;8.68;;;;;;;-0.57;87.90;100491.38;5026226;28;20057;-58
2022/04/11 09:38:09;;;;;;;24.98;7.85;;;;;;;-0.83;88.38;100456.31;5026123;28;20113;-58
2022/04/11 09:40:41;;;;;;;26.13;7.32;;;;;;;-0.74;88.55;100477.13;5026112;28;21048;-58
2022/04/11 09:43:15;;;;;;;26.13;7.35;;;;;;;-0.61;88.98;100499.81;5025830;28;20120;-58
2022/04/11 09:45:46;;;;;;;28.67;7.38;;;;;;;-0.63;88.72;100480.03;5026319;28;20053;-58
2022/04/11 09:48:21;;;;;;;25.30;7.05;;;;;;;-0.72;88.93;100475.50;5025941;28;20061;-58
2022/04/11 09:50:53;;;;;;;33.58;9.20;;;;;;;-0.75;89.15;100476.28;5026124;28;20093;-58
2022/04/11 09:53:25;;;;;;;29.23;7.03;;;;;;;-0.64;89.20;100489.44;5026269;28;20080;-58
2022/04/11 09:55:56;;;;;;;19.63;6.57;;;;;;;-0.94;89.50;100438.00;5025553;28;20952;-58
2022/04/11 09:58:29;;;;;;;27.27;7.60;;;;;;;-0.66;89.30;100481.69;5025856;28;20061;-58
2022/04/11 10:01:02;;;;;;;23.85;6.82;;;;;;;-0.62;89.47;100494.59;5025476;28;20313;-58
2022/04/11 10:03:34;;;;;;;26.45;7.63;;;;;;;-0.69;89.36;100485.84;5025616;28;20068;-58
2022/04/11 10:06:05;;;;;;;34.78;8.32;;;;;;;-0.87;89.73;100451.09;5025686;28;20061;-58
2022/04/11 10:08:37;;;;;;;26.90;7.45;;;;;;;-0.52;89.35;100510.38;5026020;28;20056;-58
2022/04/11 10:11:09;;;;;;;29.33;7.80;;;;;;;-0.52;89.43;100510.38;5025969;28;20064;-58
2022/04/11 10:13:43;;;;;;;24.83;8.43;;;;;;;-0.53;89.22;100503.47;5024316;28;20107;-58
2022/04/11 10:16:14;;;;;;;27.40;7.72;;;;;;;-0.53;89.39;100497.47;5025139;28;20053;-58
2022/04/11 10:18:45;;;;;;;23.52;8.05;;;;;;;-0.55;89.36;100509.38;5025504;28;20386;-58
2022/04/11 10:21:16;;;;;;;34.15;8.73;;;;;;;-0.57;89.29;100506.78;5026308;28;20602;-58
2022/04/11 10:24:04;;;;;;;28.60;8.05;;;;;;;-0.56;89.41;100513.66;5025107;28;20062;-58
2022/04/11 10:26:45;;;;;;;39.65;8.50;;;;;;;-0.56;89.30;100487.97;5025031;28;20053;-58
2022/04/11 10:29:38;;;;;;;31.42;8.18;;;;;;;-0.59;89.58;100482.75;5024752;28;20398;-58
2022/04/11 10:32:09;;;;;;;33.05;9.93;;;;;;;-0.59;89.17;100489.59;5024976;28;20065;-58
2022/04/11 10:34:51;;;;;;;34.28;10.27;;;;;;;-0.59;89.54;100497.28;5025044;28;20053;-58
2022/04/11 10:37:24;;;;;;;26.15;7.82;;;;;;;-0.60;89.77;100496.44;5025170;28;20047;-58
2022/04/11 10:40:15;;;;;;;36.17;8.30;;;;;;;-0.69;89.73;100485.84;5026006;28;20069;-58
2022/04/11 10:43:13;;;;;;;31.23;8.82;;;;;;;-0.59;89.48;100498.16;5025383;28;20057;-58
2022/04/11 10:45:56;;;;;;;24.05;7.50;;;;;;;-1.24;89.48;100417.34;5025839;28;20280;-58
2022/04/11 10:49:05;;;;;;;28.20;8.10;;;;;;;-0.54;89.47;100517.16;5025913;28;20100;-57
2022/04/11 10:51:37;;;;;;;21.15;7.13;;;;;;;-0.63;89.47;100511.69;5025396;28;20045;-58
2022/04/11 10:54:18;;;;;;;23.52;7.90;;;;;;;-0.59;89.69;100503.28;5025690;28;20042;-58
2022/04/11 10:57:09;;;;;;;25.13;7.95;;;;;;;-0.59;89.67;100515.25;5025607;28;20077;-58
2022/04/11 11:00:07;;;;;;;34.55;8.85;;;;;;;-0.57;89.75;100496.53;5025184;28;20096;-58
2022/04/11 11:03:13;;;;;;;36.05;8.63;;;;;;;-0.62;89.86;100503.19;5025059;28;20255;-58
2022/04/11 11:05:45;;;;;;;32.78;7.55;;;;;;;-0.63;89.98;100495.44;5025171;28;20291;-58
2022/04/11 11:08:42;;;;;;;48.25;8.77;;;;;;;-0.73;90.00;100504.53;5025261;28;20269;-58
2022/04/11 11:11:24;;;;;;;42.67;8.73;;;;;;;-0.73;90.38;100489.13;5025120;28;20049;-57
2022/04/11 11:13:58;;;;;;;52.47;8.10;;;;;;;-0.76;90.51;100478.78;5025573;28;20474;-58
2022/04/11 11:16:39;;;;;;;41.38;7.80;;;;;;;-0.76;90.40;100458.25;5025108;28;20065;-58
2022/04/11 11:19:27;;;;;;;37.33;8.15;;;;;;;-0.72;90.50;100449.84;5025181;28;20061;-58
2022/04/11 11:22:02;;;;;;;63.97;8.57;;;;;;;-0.75;90.39;100447.16;5024235;28;20350;-58
2022/04/11 11:24:33;;;;;;;78.72;11.63;;;;;;;-0.77;90.36;100441.13;5023679;28;20132;-59
2022/04/11 11:27:07;;;;;;;83.95;9.05;;;;;;;-0.85;90.37;100427.16;5024829;28;20406;-59
2022/04/11 11:29:45;;;;;;;60.50;7.55;;;;;;;-0.83;90.58;100433.22;5023325;28;20053;-59
2022/04/11 11:32:16;;;;;;;90.43;10.35;;;;;;;-0.84;90.96;100424.66;5024627;28;20773;-59
2022/04/11 11:34:53;;;;;;;49.58;8.93;;;;;;;-0.86;91.00;100416.03;5024731;28;20053;-59
2022/04/11 11:37:30;;;;;;;89.53;9.73;;;;;;;-0.76;91.08;100417.19;5024863;28;20049;-59
2022/04/11 11:40:05;;;;;;;146.57;10.90;;;;;;;-0.80;90.78;100420.47;5024712;28;20088;-59
2022/04/11 11:42:39;;;;;;;87.45;9.13;;;;;;;-0.82;91.36;100432.38;5024471;28;20063;-59
2022/04/11 11:45:10;;;;;;;51.53;9.18;;;;;;;-0.85;91.65;100433.16;5024709;28;20217;-58
2022/04/11 11:47:41;;;;;;;65.13;9.48;;;;;;;-0.85;91.29;100442.53;5024646;28;20061;-59
2022/04/11 11:50:13;;;;;;;78.50;10.93;;;;;;;-1.15;91.19;100386.88;5024689;28;20279;-59
2022/04/11 11:52:45;;;;;;;94.97;11.07;;;;;;;-0.89;91.51;100429.63;5024632;28;20068;-59